Frankville, Iowa
Current Conditions -  °F | °C
As of 2:35 PM on Thursday 27 Nov 2014 (Local Time) from KPDC Reporting Station
Clear Clear  
Wind Chill:   Ceiling: Unl
Heat Index: 17°   Visibility: 10mi
Dew Point: -2°   Wind: 8mph
Humidity: 43%   Direction: 300°WNW
Pressure: 30.44"   Gusts: NA
Location:  42.9942°N, 91.5477°W
Report Text: KPDC 272035Z AUTO 30007KT 10SM CLR M09/M19 A3044 RMK AO2 T10861191
Loading
Personal Weather Stations






























Interactive Weather Map New forecast layout! Learn more

10-Day Weather Forecast

Advertisements
Track Severe Weather on mobile